Time;durP1;ratioP1;P1;durP2;ratioP2;P2;SDS_P1;SDS_P2;PMS_P1;PMS_P2;Temp;Humidity;BMP_temperature;BMP_pressure;BME280_temperature;BME280_humidity;BME280_pressure;Samples;Min_cycle;Max_cycle;Signal;HPM_P1;HPM_P2
2023/03/04 00:01:43;;;;;;;20.25;9.18;;;;;;;6.11;100.00;100613.97;4972080;28;20405;-83
2023/03/04 00:04:08;;;;;;;20.48;8.38;;;;;;;6.39;100.00;100609.06;4973440;28;22368;-83
2023/03/04 00:06:34;;;;;;;15.98;8.60;;;;;;;6.45;100.00;100617.31;4975124;28;20047;-83
2023/03/04 00:09:00;;;;;;;16.25;8.80;;;;;;;6.42;100.00;100613.22;4973685;28;20034;-83
2023/03/04 00:11:25;;;;;;;16.30;9.05;;;;;;;6.51;100.00;100616.84;4973519;28;20125;-82
2023/03/04 00:13:51;;;;;;;19.90;7.70;;;;;;;6.49;100.00;100621.34;4972828;28;20078;-80
2023/03/04 00:16:17;;;;;;;16.10;7.72;;;;;;;6.29;100.00;100621.25;4973581;28;20594;-79
2023/03/04 00:18:45;;;;;;;16.00;7.25;;;;;;;6.43;100.00;100626.09;4973948;28;20046;-80
2023/03/04 00:21:10;;;;;;;13.82;5.70;;;;;;;6.45;100.00;100623.38;4973850;28;20042;-80
2023/03/04 00:23:36;;;;;;;15.25;6.63;;;;;;;6.54;100.00;100629.63;4956152;28;20042;-79
2023/03/04 00:26:01;;;;;;;12.35;6.00;;;;;;;6.45;100.00;100622.53;4973700;28;20046;-80
2023/03/04 00:32:30;;;;;;;7.68;4.63;;;;;;;6.47;100.00;100624.09;4973591;28;20049;-79
2023/03/04 00:34:58;;;;;;;12.63;6.07;;;;;;;6.38;100.00;100624.84;4973994;28;20070;-80
2023/03/04 00:37:24;;;;;;;16.80;7.68;;;;;;;6.61;100.00;100617.69;4972605;28;20117;-78
2023/03/04 00:39:49;;;;;;;14.32;6.40;;;;;;;6.37;100.00;100626.63;4954641;28;20034;-80
2023/03/04 00:42:15;;;;;;;15.95;6.68;;;;;;;6.23;100.00;100619.97;4974955;28;20477;-80
2023/03/04 00:44:40;;;;;;;19.48;7.32;;;;;;;6.31;100.00;100616.72;4959527;28;20126;-80
2023/03/04 00:47:06;;;;;;;25.67;7.05;;;;;;;6.37;100.00;100621.41;4976717;28;20035;-80
2023/03/04 00:49:31;;;;;;;19.15;9.05;;;;;;;6.30;100.00;100625.50;4976906;28;20047;-79
2023/03/04 00:51:56;;;;;;;24.60;9.02;;;;;;;6.52;100.00;100627.13;4976212;28;20515;-81
2023/03/04 00:54:22;;;;;;;23.05;9.55;;;;;;;6.42;100.00;100624.47;4975066;28;20504;-80
2023/03/04 00:56:47;;;;;;;24.85;8.77;;;;;;;6.64;100.00;100622.66;4976857;28;20436;-80
2023/03/04 00:59:13;;;;;;;21.45;7.50;;;;;;;6.54;100.00;100627.81;4976582;28;20035;-80
2023/03/04 01:01:39;;;;;;;20.33;8.38;;;;;;;6.62;100.00;100623.75;4976219;28;20070;-81
2023/03/04 01:04:04;;;;;;;23.73;9.32;;;;;;;6.61;100.00;100625.53;4976263;28;20061;-80
2023/03/04 01:06:30;;;;;;;19.08;9.93;;;;;;;6.24;100.00;100620.78;4976354;28;20098;-81
2023/03/04 01:08:55;;;;;;;21.55;10.15;;;;;;;6.25;100.00;100622.41;4961593;28;20441;-80
2023/03/04 01:11:21;;;;;;;20.17;10.07;;;;;;;6.42;100.00;100615.81;4958894;28;20497;-80
2023/03/04 01:13:48;;;;;;;24.10;10.60;;;;;;;6.45;100.00;100623.38;4975362;28;20045;-81
2023/03/04 01:16:13;;;;;;;25.92;10.50;;;;;;;6.53;100.00;100630.56;4976237;28;20390;-80
2023/03/04 01:18:39;;;;;;;17.08;9.55;;;;;;;6.41;100.00;100628.03;4975952;28;20070;-79
2023/03/04 01:21:05;;;;;;;15.60;9.30;;;;;;;6.58;100.00;100625.78;4975428;28;20178;-80
2023/03/04 01:23:30;;;;;;;20.23;11.32;;;;;;;6.11;100.00;100629.63;4976093;28;20050;-80
2023/03/04 01:25:56;;;;;;;22.10;11.93;;;;;;;6.39;100.00;100624.72;4976354;28;20090;-80
2023/03/04 01:28:22;;;;;;;24.30;12.95;;;;;;;6.22;100.00;100622.69;4958321;28;20477;-80
2023/03/04 01:30:47;;;;;;;20.15;10.77;;;;;;;6.14;100.00;100621.53;4976154;28;20049;-81
2023/03/04 01:33:13;;;;;;;18.80;9.90;;;;;;;6.14;100.00;100605.91;4975180;28;20034;-80
2023/03/04 01:35:41;;;;;;;23.17;9.88;;;;;;;6.24;100.00;100610.34;4975653;28;20034;-79
2023/03/04 01:38:06;;;;;;;21.42;9.93;;;;;;;6.41;100.00;100611.56;4958637;28;20481;-79
2023/03/04 01:40:32;;;;;;;20.48;9.77;;;;;;;6.40;100.00;100608.13;4975658;28;20027;-79
2023/03/04 01:42:58;;;;;;;17.73;8.73;;;;;;;6.27;100.00;100608.31;4958358;28;20039;-79
2023/03/04 01:45:24;;;;;;;17.40;9.27;;;;;;;6.21;100.00;100600.16;4956822;28;20457;-80
2023/03/04 01:47:50;;;;;;;21.80;9.35;;;;;;;6.40;100.00;100599.47;4976515;28;20034;-80
2023/03/04 01:50:20;;;;;;;16.30;8.48;;;;;;;6.12;100.00;100594.78;4975687;28;20039;-80
2023/03/04 01:52:45;;;;;;;15.23;10.05;;;;;;;5.97;100.00;100594.19;4957450;28;20050;-80
2023/03/04 01:55:15;;;;;;;20.50;9.90;;;;;;;6.21;100.00;100593.19;4975910;28;20102;-80
2023/03/04 01:57:41;;;;;;;20.83;9.88;;;;;;;6.12;100.00;100591.31;4958882;28;20054;-79
2023/03/04 02:00:19;;;;;;;16.58;10.27;;;;;;;6.24;100.00;100579.88;4976428;28;20504;-80
2023/03/04 02:02:45;;;;;;;20.38;10.25;;;;;;;6.25;100.00;100585.91;4975695;28;20524;-80
2023/03/04 02:05:12;;;;;;;21.23;9.98;;;;;;;6.50;100.00;100578.66;4975544;28;20056;-80
2023/03/04 02:07:37;;;;;;;17.05;9.75;;;;;;;6.12;100.00;100581.75;4975714;28;20057;-80
2023/03/04 02:10:04;;;;;;;22.50;10.23;;;;;;;6.09;100.00;100576.78;4975521;28;20382;-80
2023/03/04 02:12:30;;;;;;;21.25;9.48;;;;;;;6.00;100.00;100577.50;4975182;28;20053;-80
2023/03/04 02:14:55;;;;;;;22.25;10.07;;;;;;;6.14;100.00;100574.63;4959304;28;20035;-79
2023/03/04 02:17:25;;;;;;;20.77;10.77;;;;;;;6.06;100.00;100574.41;4975221;28;20046;-79
2023/03/04 02:20:12;;;;;;;18.95;9.80;;;;;;;5.93;100.00;100578.97;4974781;28;20117;-79
2023/03/04 02:22:47;;;;;;;18.42;8.80;;;;;;;6.10;100.00;100573.22;4974054;28;20077;-80
2023/03/04 02:25:20;;;;;;;16.58;8.68;;;;;;;6.17;100.00;100581.34;4975085;28;20042;-80
2023/03/04 02:27:45;;;;;;;23.35;10.75;;;;;;;5.83;100.00;100581.50;4974060;28;20050;-80
2023/03/04 02:30:12;;;;;;;16.60;9.57;;;;;;;5.97;100.00;100577.75;4957602;28;20452;-79
2023/03/04 02:32:37;;;;;;;18.40;9.13;;;;;;;5.76;100.00;100585.53;4974858;28;20081;-79
2023/03/04 02:35:03;;;;;;;22.45;12.00;;;;;;;5.63;100.00;100572.69;4957292;28;20066;-79
2023/03/04 02:37:29;;;;;;;21.65;10.52;;;;;;;5.83;100.00;100574.50;4957435;28;20035;-79
2023/03/04 02:39:54;;;;;;;21.55;9.68;;;;;;;5.73;100.00;100571.00;4974313;28;20061;-80
2023/03/04 02:42:20;;;;;;;17.90;8.23;;;;;;;5.50;100.00;100571.09;4974560;28;20038;-79
2023/03/04 02:44:48;;;;;;;16.80;8.13;;;;;;;5.47;100.00;100568.69;4975241;28;20053;-79
2023/03/04 02:47:18;;;;;;;16.08;7.75;;;;;;;5.54;100.00;100579.47;4973516;28;20069;-80
2023/03/04 02:49:45;;;;;;;15.93;7.75;;;;;;;5.67;100.00;100579.28;4974455;28;20524;-78
2023/03/04 02:52:21;;;;;;;13.07;7.70;;;;;;;5.45;100.00;100578.41;4974360;28;20504;-78
2023/03/04 02:54:46;;;;;;;17.02;8.20;;;;;;;5.35;100.00;100578.31;4974565;28;20049;-79
2023/03/04 02:57:13;;;;;;;15.00;7.82;;;;;;;5.33;100.00;100569.00;4974718;28;20042;-79
2023/03/04 02:59:40;;;;;;;16.75;8.13;;;;;;;5.50;100.00;100570.25;4973812;28;20416;-79
2023/03/04 03:02:06;;;;;;;21.83;7.82;;;;;;;5.58;100.00;100567.84;4957343;28;20110;-79
2023/03/04 03:04:33;;;;;;;18.60;8.30;;;;;;;5.55;100.00;100573.28;4956813;28;20139;-79
2023/03/04 03:06:58;;;;;;;15.85;8.35;;;;;;;5.42;100.00;100573.47;4974057;28;20038;-79
2023/03/04 03:09:24;;;;;;;15.80;7.97;;;;;;;5.57;100.00;100571.41;4974441;28;20045;-79
2023/03/04 03:11:49;;;;;;;11.85;7.43;;;;;;;5.41;100.00;100570.03;4974571;28;20050;-79
2023/03/04 03:14:15;;;;;;;20.83;8.68;;;;;;;5.34;100.00;100570.66;4973658;28;20046;-79
2023/03/04 03:16:40;;;;;;;17.13;7.97;;;;;;;5.44;100.00;100566.34;4973968;28;20038;-79
2023/03/04 03:19:06;;;;;;;18.90;8.50;;;;;;;5.12;100.00;100567.16;4973902;28;20067;-80
2023/03/04 03:21:31;;;;;;;17.92;8.90;;;;;;;5.28;100.00;100562.34;4973424;28;20082;-79
2023/03/04 03:23:57;;;;;;;20.38;9.80;;;;;;;5.06;100.00;100570.22;4974015;28;20027;-79
2023/03/04 03:26:22;;;;;;;12.18;7.70;;;;;;;4.88;100.00;100549.88;4974080;28;20042;-80
2023/03/04 03:28:48;;;;;;;17.95;7.40;;;;;;;4.92;100.00;100553.94;4956930;28;20118;-79
2023/03/04 03:31:13;;;;;;;10.48;6.72;;;;;;;5.06;100.00;100549.41;4974289;28;20039;-79
2023/03/04 03:33:39;;;;;;;11.75;6.03;;;;;;;5.19;100.00;100552.69;4973858;28;20408;-78
2023/03/04 03:36:08;;;;;;;14.35;6.53;;;;;;;5.14;100.00;100549.63;4973915;28;20031;-80
2023/03/04 03:38:34;;;;;;;17.92;6.40;;;;;;;5.05;100.00;100553.78;4973792;28;20370;-80
2023/03/04 03:40:59;;;;;;;15.60;6.95;;;;;;;5.11;100.00;100549.84;4956894;28;20049;-80
2023/03/04 03:43:25;;;;;;;21.95;6.53;;;;;;;5.31;100.00;100550.06;4956729;28;20046;-79
2023/03/04 03:45:50;;;;;;;20.75;6.70;;;;;;;5.26;100.00;100553.03;4973204;28;20043;-79
2023/03/04 03:48:17;;;;;;;12.73;6.85;;;;;;;5.01;100.00;100549.75;4974301;28;20043;-78
2023/03/04 03:50:42;;;;;;;14.80;6.63;;;;;;;5.12;100.00;100551.53;4958244;28;20054;-78
2023/03/04 03:53:08;;;;;;;14.63;6.78;;;;;;;4.95;100.00;100547.63;4973633;28;20091;-79
2023/03/04 03:55:33;;;;;;;11.93;6.90;;;;;;;4.97;100.00;100541.38;4974969;28;20054;-78
2023/03/04 03:57:59;;;;;;;11.75;6.55;;;;;;;5.07;100.00;100548.44;4972930;28;20039;-80
2023/03/04 04:00:24;;;;;;;14.00;7.30;;;;;;;4.85;100.00;100545.78;4973611;28;20540;-79
2023/03/04 04:02:51;;;;;;;13.50;6.32;;;;;;;4.93;100.00;100544.34;4973584;28;20178;-79
2023/03/04 04:05:17;;;;;;;13.60;6.50;;;;;;;5.11;100.00;100539.44;4973291;28;20109;-79
2023/03/04 04:07:42;;;;;;;12.02;5.75;;;;;;;4.66;100.00;100551.56;4973484;28;20057;-79
2023/03/04 04:10:09;;;;;;;16.17;6.00;;;;;;;4.93;100.00;100545.19;4972577;28;20035;-79
2023/03/04 04:12:35;;;;;;;11.52;5.18;;;;;;;4.70;100.00;100547.78;4955582;28;20075;-79
2023/03/04 04:15:00;;;;;;;13.65;5.70;;;;;;;4.76;100.00;100545.66;4974220;28;20047;-78
2023/03/04 04:17:26;;;;;;;12.93;4.70;;;;;;;5.08;100.00;100544.91;4974800;28;20038;-79
2023/03/04 04:19:51;;;;;;;9.60;4.70;;;;;;;5.11;100.00;100536.84;4977647;28;20460;-79
2023/03/04 04:22:19;;;;;;;13.65;5.22;;;;;;;4.98;100.00;100534.38;4976839;28;20050;-79
2023/03/04 04:24:45;;;;;;;12.73;5.07;;;;;;;4.91;100.00;100536.63;4976088;28;20117;-79
2023/03/04 04:27:11;;;;;;;12.00;5.40;;;;;;;5.03;100.00;100536.63;4976461;28;20038;-78
2023/03/04 04:29:37;;;;;;;8.23;4.55;;;;;;;4.86;100.00;100533.56;4976807;28;20049;-79
2023/03/04 04:32:03;;;;;;;10.73;5.30;;;;;;;4.98;100.00;100536.97;4958964;28;20485;-80
2023/03/04 04:34:29;;;;;;;13.95;5.32;;;;;;;4.72;100.00;100548.50;4976512;28;20042;-79
2023/03/04 04:36:54;;;;;;;14.05;5.53;;;;;;;4.74;100.00;100553.56;4959480;28;20049;-79
2023/03/04 04:39:20;;;;;;;11.38;5.50;;;;;;;4.77;100.00;100539.50;4976453;28;20035;-80
2023/03/04 04:41:46;;;;;;;13.90;5.90;;;;;;;4.62;100.00;100544.94;4976504;28;20461;-80
2023/03/04 04:44:12;;;;;;;16.48;5.28;;;;;;;4.84;100.00;100538.91;4976791;28;20440;-79
2023/03/04 04:46:38;;;;;;;15.30;5.68;;;;;;;4.81;100.00;100536.53;4958607;28;20137;-79
2023/03/04 04:49:05;;;;;;;11.13;5.60;;;;;;;4.93;100.00;100537.38;4976588;28;20042;-79
2023/03/04 04:51:31;;;;;;;11.35;5.65;;;;;;;4.72;100.00;100548.50;4976645;28;20035;-80
2023/03/04 04:53:58;;;;;;;12.80;5.93;;;;;;;5.01;100.00;100536.75;4976531;28;20109;-79
2023/03/04 04:56:25;;;;;;;17.52;5.70;;;;;;;4.87;100.00;100524.81;4976762;28;20159;-80
2023/03/04 04:58:53;;;;;;;12.20;6.68;;;;;;;4.68;100.00;100544.47;4976116;28;20046;-79
2023/03/04 05:01:19;;;;;;;14.57;5.20;;;;;;;4.92;100.00;100529.66;4976581;28;20089;-80
2023/03/04 05:03:45;;;;;;;21.52;6.30;;;;;;;5.04;100.00;100533.06;4976609;28;20046;-80
2023/03/04 05:06:12;;;;;;;12.35;6.22;;;;;;;4.82;100.00;100527.81;4976183;28;20121;-78
2023/03/04 05:08:38;;;;;;;9.70;5.35;;;;;;;4.78;100.00;100526.38;4975819;28;20444;-79
2023/03/04 05:11:04;;;;;;;12.98;5.50;;;;;;;4.96;100.00;100531.91;4975143;28;20042;-79
2023/03/04 05:13:30;;;;;;;9.88;4.88;;;;;;;4.98;100.00;100524.81;4975980;28;20094;-80
2023/03/04 05:15:56;;;;;;;11.27;5.70;;;;;;;4.98;100.00;100524.81;4959846;28;20453;-80
2023/03/04 05:18:23;;;;;;;11.10;4.70;;;;;;;4.86;100.00;100536.19;4958825;28;20047;-80
2023/03/04 05:20:59;;;;;;;11.73;5.10;;;;;;;4.84;100.00;100525.06;4958276;28;20042;-80
2023/03/04 05:23:27;;;;;;;14.05;5.13;;;;;;;5.11;100.00;100534.22;4976013;28;20117;-80
2023/03/04 05:25:52;;;;;;;12.07;5.38;;;;;;;5.09;100.00;100528.31;4975776;28;20428;-79
2023/03/04 05:28:19;;;;;;;14.80;4.90;;;;;;;5.09;100.00;100526.56;4957978;28;20130;-78
2023/03/04 05:30:45;;;;;;;11.57;5.32;;;;;;;4.93;100.00;100529.56;4974877;28;20095;-80
2023/03/04 05:33:13;;;;;;;14.43;5.80;;;;;;;5.14;100.00;100534.03;4975797;28;20545;-80
2023/03/04 05:35:40;;;;;;;14.63;4.60;;;;;;;5.03;100.00;100536.63;4975354;28;20669;-79
2023/03/04 05:38:09;;;;;;;14.63;5.43;;;;;;;5.17;100.00;100544.19;4957199;28;20047;-78
2023/03/04 05:40:35;;;;;;;15.48;5.35;;;;;;;4.74;100.00;100532.75;4975615;28;20575;-79
2023/03/04 05:43:00;;;;;;;13.02;4.93;;;;;;;4.91;100.00;100544.44;4975291;28;20112;-78
2023/03/04 05:45:26;;;;;;;12.88;4.93;;;;;;;5.06;100.00;100544.19;4975961;28;20457;-79
2023/03/04 05:47:52;;;;;;;12.02;4.78;;;;;;;5.10;100.00;100543.84;4958186;28;20478;-80
2023/03/04 05:50:18;;;;;;;10.50;4.20;;;;;;;4.85;100.00;100540.56;4976267;28;20031;-79
2023/03/04 05:52:44;;;;;;;10.65;4.85;;;;;;;4.72;100.00;100540.69;4974794;28;20490;-79
2023/03/04 05:55:10;;;;;;;15.73;5.72;;;;;;;4.79;100.00;100543.63;4975880;28;20051;-79
2023/03/04 05:57:36;;;;;;;12.45;4.90;;;;;;;4.91;100.00;100546.22;4976030;28;20490;-80
2023/03/04 06:00:04;;;;;;;10.65;5.13;;;;;;;4.93;100.00;100542.56;4976131;28;20046;-82
2023/03/04 06:02:29;;;;;;;7.30;4.38;;;;;;;5.02;100.00;100542.78;4975735;28;20113;-80
2023/03/04 06:04:55;;;;;;;11.27;4.55;;;;;;;4.85;100.00;100545.78;4976275;28;20473;-79
2023/03/04 06:07:20;;;;;;;9.10;4.45;;;;;;;4.79;100.00;100546.22;4975720;28;20043;-79
2023/03/04 06:09:46;;;;;;;13.50;5.07;;;;;;;4.66;100.00;100555.94;4975512;28;20366;-80
2023/03/04 06:12:11;;;;;;;10.98;4.05;;;;;;;4.78;100.00;100559.38;4977038;28;20898;-80
2023/03/04 06:14:37;;;;;;;11.73;5.22;;;;;;;4.46;100.00;100554.88;4975736;28;20035;-80
2023/03/04 06:17:03;;;;;;;11.93;4.45;;;;;;;4.71;100.00;100565.03;4975372;28;20101;-80
2023/03/04 06:19:28;;;;;;;8.60;4.03;;;;;;;4.86;100.00;100570.00;4976086;28;20173;-80
2023/03/04 06:21:57;;;;;;;11.23;4.57;;;;;;;4.71;100.00;100559.00;4957844;28;20484;-80
2023/03/04 06:24:22;;;;;;;11.63;4.75;;;;;;;4.74;100.00;100560.56;4957823;28;20038;-79
2023/03/04 06:26:48;;;;;;;18.60;4.10;;;;;;;4.91;100.00;100575.66;4958087;28;20039;-79
2023/03/04 06:29:14;;;;;;;10.05;4.03;;;;;;;5.05;100.00;100558.16;4973869;28;20042;-80
2023/03/04 06:31:42;;;;;;;10.75;4.60;;;;;;;5.07;100.00;100549.28;4974693;28;20121;-79
2023/03/04 06:34:08;;;;;;;13.52;4.20;;;;;;;5.05;100.00;100552.94;4957193;28;20161;-81
2023/03/04 06:36:34;;;;;;;7.90;4.05;;;;;;;5.07;100.00;100556.25;4974721;28;20039;-80
2023/03/04 06:39:04;;;;;;;11.27;4.18;;;;;;;4.91;100.00;100554.84;4956696;28;20050;-80
2023/03/04 06:41:30;;;;;;;11.35;4.28;;;;;;;4.90;100.00;100553.19;4956391;28;20109;-80
2023/03/04 06:43:55;;;;;;;5.72;3.70;;;;;;;4.95;100.00;100553.69;4956683;28;20073;-79
2023/03/04 06:46:21;;;;;;;11.93;3.90;;;;;;;5.00;100.00;100563.72;4974511;28;20046;-79
2023/03/04 06:48:46;;;;;;;9.38;3.17;;;;;;;4.74;100.00;100563.16;4975119;28;20105;-79
2023/03/04 06:51:14;;;;;;;15.18;3.95;;;;;;;4.84;100.00;100570.13;4974597;28;20043;-79
2023/03/04 06:53:40;;;;;;;14.05;3.63;;;;;;;5.15;100.00;100556.50;4974255;28;20153;-80
2023/03/04 06:56:07;;;;;;;11.07;3.70;;;;;;;5.35;100.00;100567.91;4957246;28;20057;-80
2023/03/04 06:58:33;;;;;;;13.10;4.72;;;;;;;5.09;100.00;100556.97;4956495;28;20045;-79
2023/03/04 07:01:28;;;;;;;13.77;3.47;;;;;;;5.22;100.00;100562.84;4973339;28;20468;-80
2023/03/04 07:03:55;;;;;;;15.52;4.18;;;;;;;4.84;100.00;100575.34;4957882;28;20097;-80
2023/03/04 07:06:25;;;;;;;17.60;4.10;;;;;;;5.16;100.00;100563.34;4975821;28;20117;-82
2023/03/04 07:08:51;;;;;;;12.35;3.90;;;;;;;4.60;100.00;100566.81;4958514;28;20445;-84
2023/03/04 07:11:18;;;;;;;8.98;3.65;;;;;;;5.00;100.00;100574.97;4975080;28;20489;-83
2023/03/04 07:13:44;;;;;;;11.27;3.72;;;;;;;5.03;100.00;100567.88;4974926;28;20050;-82
2023/03/04 07:16:12;;;;;;;11.82;4.03;;;;;;;5.20;100.00;100580.38;4972873;28;20533;-83
2023/03/04 07:18:39;;;;;;;7.90;3.85;;;;;;;5.09;100.00;100580.38;4954029;28;20070;-83
2023/03/04 07:21:06;;;;;;;10.45;4.13;;;;;;;5.07;100.00;100585.72;4974487;28;20105;-81
2023/03/04 07:23:33;;;;;;;16.80;3.60;;;;;;;5.11;100.00;100586.28;4982139;28;20453;-83
2023/03/04 07:26:04;;;;;;;7.25;3.85;;;;;;;5.35;100.00;100585.31;4960392;28;20112;-82
2023/03/04 07:28:29;;;;;;;11.27;3.60;;;;;;;5.33;99.96;100575.03;4974945;28;20050;-80
2023/03/04 07:30:55;;;;;;;12.00;3.58;;;;;;;5.54;100.00;100582.06;4974054;28;20045;-82
2023/03/04 07:33:20;;;;;;;11.82;3.70;;;;;;;5.57;99.89;100587.88;4974816;28;20039;-82
2023/03/04 07:35:46;;;;;;;11.85;4.15;;;;;;;5.40;99.83;100583.19;4957659;28;20498;-85
2023/03/04 07:38:11;;;;;;;11.15;3.58;;;;;;;5.47;100.00;100586.13;4957912;28;20042;-82
2023/03/04 07:40:37;;;;;;;11.93;3.80;;;;;;;5.64;99.74;100588.19;4978288;28;20094;-82
2023/03/04 07:43:03;;;;;;;10.23;3.95;;;;;;;5.29;100.00;100592.66;4974376;28;20073;-82
2023/03/04 07:45:28;;;;;;;9.52;3.55;;;;;;;5.41;100.00;100592.63;4975031;28;20039;-82
2023/03/04 07:47:54;;;;;;;10.65;3.30;;;;;;;5.54;100.00;100595.94;4975603;28;20043;-81
2023/03/04 07:50:20;;;;;;;13.57;3.80;;;;;;;5.58;99.26;100586.06;4976168;28;20471;-87
2023/03/04 07:52:49;;;;;;;10.52;3.08;;;;;;;5.36;99.75;100594.78;4980401;28;20046;-86
2023/03/04 07:55:15;;;;;;;13.20;3.42;;;;;;;5.37;100.00;100588.63;4980767;28;20059;-82
2023/03/04 07:57:42;;;;;;;9.48;3.42;;;;;;;5.73;100.00;100591.84;4979251;28;20074;-89
2023/03/04 08:00:10;;;;;;;13.23;3.42;;;;;;;5.75;99.68;100592.53;4980324;28;20035;-85
2023/03/04 08:02:35;;;;;;;7.20;3.63;;;;;;;5.80;98.93;100597.38;4977850;28;20512;-87
2023/03/04 08:05:01;;;;;;;7.82;2.95;;;;;;;5.75;98.08;100589.09;4978850;28;20035;-83
2023/03/04 08:07:26;;;;;;;8.55;2.85;;;;;;;5.82;98.36;100600.69;4978486;28;20030;-82
2023/03/04 08:09:52;;;;;;;9.90;3.25;;;;;;;5.99;97.94;100592.31;4960905;28;20094;-83
2023/03/04 08:12:17;;;;;;;8.65;3.30;;;;;;;5.99;97.71;100587.13;4979172;28;20035;-83
2023/03/04 08:14:44;;;;;;;12.23;3.50;;;;;;;5.97;98.25;100594.19;4979138;28;20121;-84
2023/03/04 08:17:09;;;;;;;8.38;3.05;;;;;;;5.88;98.58;100583.72;4962967;28;20449;-86
2023/03/04 08:19:35;;;;;;;16.27;3.40;;;;;;;6.02;97.17;100586.03;4979554;28;20041;-84
2023/03/04 08:22:01;;;;;;;8.73;2.95;;;;;;;6.00;97.67;100587.91;4978861;28;20492;-83
2023/03/04 08:24:27;;;;;;;8.48;3.15;;;;;;;6.21;97.49;100589.75;4978423;28;20046;-84
2023/03/04 08:26:53;;;;;;;9.68;3.53;;;;;;;6.52;96.91;100584.56;4978751;28;20047;-83
2023/03/04 08:29:21;;;;;;;10.07;3.45;;;;;;;6.26;96.20;100577.97;4977365;28;20115;-82
2023/03/04 08:31:53;;;;;;;11.43;3.95;;;;;;;6.16;96.42;100584.09;4978003;28;20592;-84
2023/03/04 08:34:22;;;;;;;7.40;3.42;;;;;;;6.42;97.37;100587.94;4978568;28;20038;-83
2023/03/04 08:36:48;;;;;;;5.25;3.13;;;;;;;6.53;96.53;100583.63;4978477;28;20062;-84
2023/03/04 08:39:15;;;;;;;12.40;4.47;;;;;;;6.31;97.00;100582.81;4979424;28;20037;-84
2023/03/04 08:41:41;;;;;;;10.43;2.90;;;;;;;6.41;95.93;100585.47;4960495;28;20404;-86
2023/03/04 08:44:09;;;;;;;16.73;3.55;;;;;;;6.61;95.54;100586.38;4961974;28;20034;-84
2023/03/04 08:46:38;;;;;;;10.38;3.63;;;;;;;6.45;95.89;100576.44;4961803;28;20046;-83
2023/03/04 08:49:05;;;;;;;8.82;3.55;;;;;;;6.56;95.88;100585.97;4977908;28;20050;-83
2023/03/04 08:51:30;;;;;;;15.57;4.22;;;;;;;6.14;97.06;100594.63;4985532;28;20492;-82
2023/03/04 08:53:56;;;;;;;8.20;3.35;;;;;;;6.02;96.92;100587.84;4981888;28;20047;-84
2023/03/04 08:56:22;;;;;;;14.18;4.10;;;;;;;5.94;96.74;100593.66;4983719;28;20078;-85
2023/03/04 08:58:47;;;;;;;10.27;3.92;;;;;;;6.09;97.25;100592.44;4965768;28;20038;-83
2023/03/04 09:01:14;;;;;;;9.13;3.53;;;;;;;6.17;96.48;100586.56;4979449;28;20054;-84
2023/03/04 09:03:40;;;;;;;10.25;3.45;;;;;;;6.06;96.88;100587.44;4984229;28;20088;-85
2023/03/04 09:06:09;;;;;;;11.55;3.92;;;;;;;6.39;96.69;100585.59;4988230;28;20039;-83
2023/03/04 09:08:35;;;;;;;9.75;3.47;;;;;;;6.41;96.98;100583.69;4978812;28;20027;-85
2023/03/04 09:11:01;;;;;;;9.55;4.25;;;;;;;6.54;95.56;100585.25;4980391;28;20049;-84
2023/03/04 09:13:29;;;;;;;9.85;3.67;;;;;;;6.68;96.02;100582.31;4977489;28;20046;-84
2023/03/04 09:15:54;;;;;;;10.50;4.57;;;;;;;6.53;95.32;100581.81;4962707;28;20046;-83
2023/03/04 09:18:22;;;;;;;15.93;4.28;;;;;;;6.29;95.27;100592.56;4980541;28;20031;-84
2023/03/04 09:20:48;;;;;;;12.18;4.13;;;;;;;6.77;95.05;100590.31;4980634;28;20054;-84
2023/03/04 09:23:17;;;;;;;11.40;3.92;;;;;;;6.94;93.91;100578.41;4957964;28;20058;-85
2023/03/04 09:25:45;;;;;;;10.27;3.88;;;;;;;6.53;93.54;100579.22;4992368;28;20046;-83
2023/03/04 09:28:11;;;;;;;9.48;3.97;;;;;;;6.69;92.91;100586.59;4973081;28;20042;-84
2023/03/04 09:30:37;;;;;;;6.03;3.50;;;;;;;7.14;92.06;100589.75;4991577;28;20035;-85
2023/03/04 09:33:02;;;;;;;11.77;3.35;;;;;;;6.72;92.84;100588.09;4988201;28;20085;-86
2023/03/04 09:35:37;;;;;;;7.88;3.90;;;;;;;7.03;92.14;100600.28;4972697;28;20046;-85
2023/03/04 09:38:03;;;;;;;8.75;4.28;;;;;;;6.97;92.05;100584.19;4990380;28;20038;-83
2023/03/04 09:40:36;;;;;;;7.68;3.60;;;;;;;7.38;91.89;100591.16;4983539;28;20054;-84
2023/03/04 09:43:04;;;;;;;9.73;4.03;;;;;;;7.63;91.14;100581.97;4991813;28;20086;-87
2023/03/04 09:45:45;;;;;;;14.68;4.00;;;;;;;7.19;91.54;100584.13;4993871;28;20055;-83
2023/03/04 09:48:19;;;;;;;14.63;4.90;;;;;;;7.32;91.09;100589.09;4970462;28;20042;-85
2023/03/04 09:51:05;;;;;;;;;;;;;;;6.69;91.33;100580.53;4982212;28;20049;-83
2023/03/04 09:53:46;;;;;;;11.80;3.78;;;;;;;6.76;91.55;100586.06;4983790;28;19913;-83
2023/03/04 09:56:13;;;;;;;10.68;4.10;;;;;;;6.91;91.04;100582.13;4983256;28;20088;-84
2023/03/04 09:59:01;;;;;;;11.75;3.80;;;;;;;7.24;88.97;100581.94;4977418;28;20051;-83
2023/03/04 10:01:41;;;;;;;6.93;3.50;;;;;;;7.21;89.45;100582.22;4960872;28;20043;-83
2023/03/04 10:04:24;;;;;;;7.60;3.53;;;;;;;7.08;89.85;100585.06;4974373;28;20038;-82
2023/03/04 10:06:53;;;;;;;8.10;3.50;;;;;;;7.31;89.09;100584.84;4977238;28;20098;-84
2023/03/04 10:09:30;;;;;;;9.52;4.00;;;;;;;7.24;89.13;100581.94;4980480;28;20039;-82
2023/03/04 10:12:06;;;;;;;11.10;3.53;;;;;;;7.15;88.60;100575.72;4985651;28;20046;-83
2023/03/04 10:14:56;;;;;;;12.00;3.63;;;;;;;6.98;88.98;100574.59;4983375;28;20114;-83
2023/03/04 10:17:41;;;;;;;16.60;4.15;;;;;;;6.94;89.46;100570.56;4977541;28;20046;-81
2023/03/04 10:20:16;;;;;;;9.95;3.95;;;;;;;7.07;88.91;100571.16;4978238;28;20508;-82
2023/03/04 10:22:45;;;;;;;7.80;3.75;;;;;;;7.02;87.62;100562.09;4962171;28;20042;-83
2023/03/04 10:25:21;;;;;;;11.93;4.05;;;;;;;6.89;87.83;100565.78;4976715;28;20039;-83
2023/03/04 10:28:10;;;;;;;16.27;6.28;;;;;;;7.46;88.24;100567.78;4977043;28;20098;-82
2023/03/04 10:30:57;;;;;;;13.45;5.43;;;;;;;7.45;87.98;100568.75;4958937;28;20042;-82
2023/03/04 10:33:31;;;;;;;12.15;5.22;;;;;;;7.54;86.78;100570.56;4974051;28;20049;-80
2023/03/04 10:36:34;;;;;;;11.50;4.97;;;;;;;8.17;86.20;100568.47;4975980;28;20489;-81
2023/03/04 10:39:18;;;;;;;18.20;4.70;;;;;;;8.21;85.20;100564.59;4974338;28;20114;-81
2023/03/04 10:41:52;;;;;;;8.82;4.35;;;;;;;7.63;84.76;100578.53;4957249;28;20097;-82
2023/03/04 10:44:18;;;;;;;8.10;4.07;;;;;;;7.42;86.19;100564.66;4974130;28;20117;-82
2023/03/04 10:46:46;;;;;;;13.98;4.82;;;;;;;7.63;84.58;100561.06;4975747;28;20048;-82
2023/03/04 10:49:14;;;;;;;10.73;4.22;;;;;;;8.07;84.96;100572.88;4957921;28;20492;-83
2023/03/04 10:51:48;;;;;;;10.77;4.55;;;;;;;7.65;84.68;100568.75;4977514;28;20042;-81
2023/03/04 10:54:21;;;;;;;10.13;5.20;;;;;;;8.15;84.40;100571.22;4974768;28;20053;-82
2023/03/04 10:57:15;;;;;;;10.07;4.20;;;;;;;8.02;83.41;100567.25;4958304;28;20051;-82
2023/03/04 10:59:49;;;;;;;11.73;4.72;;;;;;;7.74;83.38;100572.34;4930045;28;20125;-84
2023/03/04 11:02:27;;;;;;;9.55;4.38;;;;;;;7.90;83.94;100570.00;4956973;28;20038;-82
2023/03/04 11:05:13;;;;;;;17.40;5.75;;;;;;;7.81;82.28;100579.50;4958391;28;20069;-82
2023/03/04 11:08:00;;;;;;;8.43;4.40;;;;;;;7.22;84.10;100570.81;4957135;28;20042;-81
2023/03/04 11:10:34;;;;;;;7.13;4.30;;;;;;;7.42;84.31;100569.03;4973127;28;20073;-83
2023/03/04 11:13:22;;;;;;;8.73;4.05;;;;;;;7.26;84.85;100567.75;4973829;28;20039;-83
2023/03/04 11:16:01;;;;;;;11.80;4.75;;;;;;;7.29;84.58;100553.63;4981833;28;20501;-82
2023/03/04 11:18:47;;;;;;;16.60;6.25;;;;;;;7.77;84.10;100559.03;4973978;28;20037;-82
2023/03/04 11:21:20;;;;;;;11.85;5.45;;;;;;;7.50;85.21;100550.91;4975618;28;20105;-81
2023/03/04 11:23:49;;;;;;;10.52;4.60;;;;;;;7.63;83.61;100549.78;4974197;28;20077;-81
2023/03/04 11:26:28;;;;;;;10.88;4.40;;;;;;;7.99;83.50;100537.81;4975321;28;20102;-82
2023/03/04 11:28:57;;;;;;;10.77;4.78;;;;;;;8.16;83.31;100535.44;4975329;28;20049;-82
2023/03/04 11:31:31;;;;;;;9.75;4.80;;;;;;;7.96;82.83;100545.94;4975298;28;20053;-84